createdAt,value
2019-01-28T00:02:16.658Z,37.57
2019-01-28T00:04:46.098Z,36.23
2019-01-28T00:07:14.629Z,33.90
2019-01-28T00:09:43.045Z,31.40
2019-01-28T00:12:11.571Z,33.10
2019-01-28T00:14:40.906Z,35.50
2019-01-28T00:17:10.230Z,32.33
2019-01-28T00:19:39.545Z,29.93
2019-01-28T00:22:07.980Z,34.10
2019-01-28T00:24:36.403Z,33.20
2019-01-28T00:27:05.149Z,29.90
2019-01-28T00:29:34.480Z,30.30
2019-01-28T00:32:03.925Z,35.30
2019-01-28T00:34:33.264Z,33.30
2019-01-28T00:37:02.590Z,38.93
2019-01-28T00:39:31.914Z,27.93
2019-01-28T00:42:00.335Z,32.23
2019-01-28T00:44:29.650Z,30.97
2019-01-28T00:46:59.093Z,25.13
2019-01-28T00:49:28.417Z,28.53
2019-01-28T00:51:57.048Z,33.73
2019-01-28T00:54:25.497Z,30.60
2019-01-28T00:56:54.810Z,34.67
2019-01-28T00:59:24.132Z,33.33
2019-01-28T01:01:53.466Z,31.73
2019-01-28T01:04:22.796Z,28.37
2019-01-28T01:06:52.134Z,25.30
2019-01-28T01:09:21.459Z,30.37
2019-01-28T01:11:50.775Z,26.90
2019-01-28T01:14:19.287Z,30.17
2019-01-28T01:16:47.812Z,27.83
2019-01-28T01:19:16.332Z,27.73
2019-01-28T01:21:45.651Z,27.53
2019-01-28T01:24:14.959Z,27.40
2019-01-28T01:26:44.286Z,24.77
2019-01-28T01:29:13.599Z,24.60
2019-01-28T01:31:42.931Z,25.23
2019-01-28T01:34:12.251Z,26.17
2019-01-28T01:36:41.582Z,25.37
2019-01-28T01:39:10.025Z,21.93
2019-01-28T01:41:39.423Z,25.93
2019-01-28T01:44:08.736Z,25.43
2019-01-28T01:46:38.161Z,22.87
2019-01-28T01:49:06.586Z,25.63
2019-01-28T01:51:35.906Z,25.37
2019-01-28T01:54:05.229Z,22.60
2019-01-28T01:56:34.601Z,26.33
2019-01-28T01:59:03.443Z,27.90
2019-01-28T02:01:32.083Z,24.73
2019-01-28T02:04:00.521Z,29.70
2019-01-28T02:06:29.862Z,28.57
2019-01-28T02:08:59.194Z,25.77
2019-01-28T02:11:27.609Z,24.43
2019-01-28T02:13:56.936Z,26.90
2019-01-28T02:16:25.373Z,29.17
2019-01-28T02:18:54.694Z,27.93
2019-01-28T02:21:23.224Z,25.27
2019-01-28T02:23:52.567Z,26.30
2019-01-28T02:26:21.210Z,24.63
2019-01-28T02:28:50.562Z,28.37
2019-01-28T02:31:19.876Z,26.57
2019-01-28T02:33:49.194Z,26.73
2019-01-28T02:36:18.527Z,32.27
2019-01-28T02:38:47.846Z,29.00
2019-01-28T02:41:17.176Z,26.00
2019-01-28T02:43:46.522Z,26.73
2019-01-28T02:46:15.034Z,29.80
2019-01-28T02:48:43.453Z,28.90
2019-01-28T02:51:11.988Z,29.40
2019-01-28T02:53:41.302Z,28.00
2019-01-28T02:56:10.636Z,28.80
2019-01-28T02:58:39.971Z,34.77
2019-01-28T03:01:09.294Z,33.07
2019-01-28T03:03:38.620Z,27.77
2019-01-28T03:06:07.058Z,28.20
2019-01-28T03:08:36.399Z,29.27
2019-01-28T03:11:05.810Z,30.07
2019-01-28T03:13:34.339Z,28.40
2019-01-28T03:16:03.773Z,28.83
2019-01-28T03:18:33.104Z,28.50
2019-01-28T03:21:02.486Z,31.13
2019-01-28T03:23:31.802Z,30.50
2019-01-28T03:26:01.123Z,29.10
2019-01-28T03:28:29.645Z,32.63
2019-01-28T03:30:58.186Z,35.87
2019-01-28T03:33:26.607Z,31.33
2019-01-28T03:35:55.941Z,33.67
2019-01-28T03:38:25.284Z,31.83
2019-01-28T03:40:54.622Z,32.60
2019-01-28T03:43:23.935Z,39.07
2019-01-28T03:45:52.481Z,38.73
2019-01-28T03:48:21.799Z,39.37
2019-01-28T03:50:51.137Z,38.33
2019-01-28T03:53:19.717Z,37.83
2019-01-28T03:55:48.275Z,43.13
2019-01-28T03:58:17.602Z,45.43
2019-01-28T04:00:46.025Z,40.07
2019-01-28T04:03:15.347Z,34.43
2019-01-28T04:05:43.905Z,41.87
2019-01-28T04:08:13.236Z,34.53
2019-01-28T04:10:42.555Z,40.37
2019-01-28T04:13:11.193Z,34.17
2019-01-28T04:15:40.618Z,39.63
2019-01-28T04:18:09.254Z,34.17
2019-01-28T04:20:37.776Z,38.17
2019-01-28T04:23:07.135Z,38.97
2019-01-28T04:25:36.527Z,36.57
2019-01-28T04:28:05.840Z,37.20
2019-01-28T04:30:35.160Z,37.57
2019-01-28T04:33:04.490Z,40.07
2019-01-28T04:35:33.817Z,35.83
2019-01-28T04:38:02.353Z,38.87
2019-01-28T04:40:30.882Z,38.60
2019-01-28T04:43:00.208Z,37.93
2019-01-28T04:45:29.528Z,36.00
2019-01-28T04:47:58.869Z,41.83
2019-01-28T04:50:27.377Z,37.67
2019-01-28T04:52:55.904Z,40.77
2019-01-28T04:55:24.430Z,43.43
2019-01-28T04:57:52.967Z,47.70
2019-01-28T05:00:23.803Z,52.43
2019-01-28T05:05:56.697Z,49.30
2019-01-28T05:08:26.021Z,50.20
2019-01-28T05:10:54.546Z,53.40
2019-01-28T05:13:22.974Z,51.73
2019-01-28T05:15:52.316Z,64.30
2019-01-28T05:18:21.640Z,66.60
2019-01-28T05:20:50.968Z,80.27
2019-01-28T05:23:20.297Z,89.00
2019-01-28T05:25:49.624Z,66.90
2019-01-28T05:28:18.085Z,58.80
2019-01-28T05:30:46.521Z,62.53
2019-01-28T05:33:15.840Z,58.83
2019-01-28T05:35:44.262Z,64.17
2019-01-28T05:38:13.685Z,56.60
2019-01-28T05:40:43.022Z,60.73
2019-01-28T05:43:12.451Z,64.07
2019-01-28T05:45:41.772Z,71.13
2019-01-28T05:48:11.109Z,67.83
2019-01-28T05:50:40.448Z,72.10
2019-01-28T05:53:09.850Z,77.73
2019-01-28T05:55:39.175Z,76.27
2019-01-28T05:58:07.698Z,81.13
2019-01-28T06:00:40.044Z,65.07
2019-01-28T06:03:08.663Z,87.37
2019-01-28T06:05:37.102Z,70.63
2019-01-28T06:08:06.432Z,80.63
2019-01-28T06:10:35.763Z,80.40
2019-01-28T06:13:05.177Z,98.47
2019-01-28T06:15:34.509Z,79.17
2019-01-28T06:21:06.021Z,80.93
2019-01-28T06:23:35.497Z,90.50
2019-01-28T06:26:04.914Z,89.13
2019-01-28T06:28:34.249Z,93.13
2019-01-28T06:31:03.741Z,97.00
2019-01-28T06:33:33.075Z,102.53
2019-01-28T06:36:02.505Z,96.07
2019-01-28T06:38:31.132Z,94.67
2019-01-28T06:40:59.747Z,110.47
2019-01-28T06:43:29.076Z,102.50
2019-01-28T06:45:58.417Z,101.80
2019-01-28T06:48:28.166Z,95.30
2019-01-28T06:50:57.529Z,98.50
2019-01-28T06:53:26.857Z,90.03
2019-01-28T06:55:56.175Z,95.67
2019-01-28T06:58:25.534Z,87.70
2019-01-28T07:00:54.878Z,89.50
2019-01-28T07:03:23.407Z,85.73
2019-01-28T07:05:51.970Z,95.67
2019-01-28T07:08:20.403Z,89.27
2019-01-28T07:10:48.947Z,88.87
2019-01-28T07:13:18.412Z,97.17
2019-01-28T07:15:47.008Z,81.57
2019-01-28T07:18:15.553Z,86.47
2019-01-28T07:20:44.870Z,76.53
2019-01-28T07:23:13.350Z,78.47
2019-01-28T07:25:41.777Z,77.53
2019-01-28T07:28:11.148Z,75.17
2019-01-28T07:30:40.512Z,75.80
2019-01-28T07:33:10.007Z,81.47
2019-01-28T07:35:38.530Z,78.10
2019-01-28T07:38:07.860Z,74.67
2019-01-28T07:40:37.186Z,77.67
2019-01-28T07:43:06.599Z,75.63
2019-01-28T07:45:45.055Z,73.80
2019-01-28T07:48:27.038Z,80.63
2019-01-28T07:50:57.109Z,75.53
2019-01-28T07:53:26.596Z,81.20
2019-01-28T07:55:55.032Z,70.87
2019-01-28T07:58:23.895Z,74.97
2019-01-28T08:00:52.414Z,68.23
2019-01-28T08:03:21.755Z,72.57
2019-01-28T08:05:51.101Z,70.77
2019-01-28T08:08:19.621Z,74.20
2019-01-28T08:10:48.967Z,71.73
2019-01-28T08:13:17.470Z,80.40
2019-01-28T08:15:46.091Z,72.90
2019-01-28T08:18:15.406Z,75.57
2019-01-28T08:20:44.745Z,73.73
2019-01-28T08:23:14.108Z,70.80
2019-01-28T08:25:43.442Z,70.17
2019-01-28T08:28:12.882Z,63.67
2019-01-28T08:30:42.216Z,78.30
2019-01-28T08:33:11.549Z,68.30
2019-01-28T08:35:40.972Z,63.63
2019-01-28T08:38:10.426Z,63.60
2019-01-28T08:40:38.852Z,57.93
2019-01-28T08:43:07.296Z,54.13
2019-01-28T08:45:35.850Z,61.80
2019-01-28T08:48:05.180Z,80.67
2019-01-28T08:50:34.641Z,61.23
2019-01-28T08:53:04.260Z,62.73
2019-01-28T08:55:33.796Z,57.23
2019-01-28T08:58:03.334Z,54.17
2019-01-28T09:00:40.430Z,51.47
2019-01-28T09:03:08.929Z,50.53
2019-01-28T09:08:40.861Z,56.93
2019-01-28T09:11:09.312Z,72.27
2019-01-28T09:13:38.650Z,82.07
2019-01-28T09:16:08.098Z,57.83
2019-01-28T09:18:37.423Z,59.10
2019-01-28T09:21:06.757Z,55.70
2019-01-28T09:23:36.070Z,62.63
2019-01-28T09:26:06.604Z,58.13
2019-01-28T09:28:54.807Z,71.07
2019-01-28T09:31:24.136Z,64.10
2019-01-28T09:33:52.562Z,62.40
2019-01-28T09:36:21.088Z,68.93
2019-01-28T09:38:50.418Z,64.17
2019-01-28T09:41:19.751Z,71.40
2019-01-28T09:43:49.072Z,56.23
2019-01-28T09:46:18.510Z,60.23
2019-01-28T09:48:47.861Z,61.93
2019-01-28T09:51:17.193Z,66.47
2019-01-28T09:53:45.732Z,61.83
2019-01-28T09:56:15.166Z,63.87
2019-01-28T09:58:43.784Z,56.43
2019-01-28T10:01:12.334Z,53.57
2019-01-28T10:03:41.665Z,59.17
2019-01-28T10:06:11.002Z,58.23
2019-01-28T10:08:40.332Z,61.07
2019-01-28T10:11:09.664Z,63.70
2019-01-28T10:13:38.995Z,55.23
2019-01-28T10:16:08.325Z,53.07
2019-01-28T10:18:41.942Z,58.13
2019-01-28T10:21:26.886Z,59.93
2019-01-28T10:23:55.325Z,59.33
2019-01-28T10:26:24.647Z,52.17
2019-01-28T10:28:54.031Z,57.13
2019-01-28T10:31:23.369Z,57.90
2019-01-28T10:33:52.747Z,54.20
2019-01-28T10:36:22.771Z,59.70
2019-01-28T10:39:12.197Z,53.20
2019-01-28T10:41:39.737Z,47.37
2019-01-28T10:44:10.355Z,43.97
2019-01-28T10:46:38.708Z,48.53
2019-01-28T10:49:07.125Z,47.60
2019-01-28T10:51:36.485Z,45.33
2019-01-28T10:54:06.000Z,48.07
2019-01-28T10:56:34.543Z,52.40
2019-01-28T10:59:04.523Z,46.70
2019-01-28T11:01:34.667Z,46.90
2019-01-28T11:07:08.974Z,39.90
2019-01-28T11:09:38.352Z,29.20
2019-01-28T11:12:07.884Z,17.30
2019-01-28T11:14:36.401Z,22.17
2019-01-28T11:17:05.943Z,18.93
2019-01-28T11:19:34.808Z,18.80
2019-01-28T11:25:09.707Z,28.23
2019-01-28T11:27:39.143Z,48.07
2019-01-28T11:30:49.066Z,52.13
2019-01-28T11:33:18.679Z,62.17
2019-01-28T11:38:49.959Z,58.57
2019-01-28T11:41:19.379Z,64.07
2019-01-28T11:43:48.847Z,50.87
2019-01-28T11:46:17.445Z,68.10
2019-01-28T11:48:46.968Z,53.77
2019-01-28T11:51:16.447Z,60.57
2019-01-28T11:53:45.808Z,56.03
2019-01-28T11:56:15.123Z,61.50
2019-01-28T11:58:43.673Z,65.07
2019-01-28T12:01:32.488Z,53.33
2019-01-28T12:04:00.914Z,59.37
2019-01-28T12:06:29.671Z,57.00
2019-01-28T12:08:59.063Z,73.53
2019-01-28T12:11:28.602Z,63.67
2019-01-28T12:13:57.943Z,60.53
2019-01-28T12:16:27.307Z,54.17
2019-01-28T12:18:55.846Z,56.07
2019-01-28T12:21:24.484Z,60.20
2019-01-28T12:23:53.014Z,55.73
2019-01-28T12:26:22.340Z,53.30
2019-01-28T12:28:51.783Z,47.93
2019-01-28T12:31:21.130Z,55.80
2019-01-28T12:33:50.475Z,48.10
2019-01-28T12:36:19.791Z,56.47
2019-01-28T12:38:48.332Z,52.20
2019-01-28T12:41:17.798Z,68.70
2019-01-28T12:43:47.206Z,61.47
2019-01-28T12:46:15.843Z,60.63
2019-01-28T12:48:44.380Z,54.77
2019-01-28T12:51:13.763Z,63.97
2019-01-28T12:53:43.191Z,57.73
2019-01-28T12:56:12.521Z,61.50
2019-01-28T12:58:41.838Z,59.90
2019-01-28T13:01:11.183Z,62.23
2019-01-28T13:03:40.532Z,62.70
2019-01-28T13:06:09.974Z,58.77
2019-01-28T13:08:39.340Z,53.73
2019-01-28T13:11:08.678Z,52.57
2019-01-28T13:13:41.061Z,52.83
2019-01-28T13:16:26.451Z,54.13
2019-01-28T13:18:55.779Z,54.40
2019-01-28T13:21:25.132Z,59.63
2019-01-28T13:23:54.460Z,65.13
2019-01-28T13:26:23.793Z,65.77
2019-01-28T13:28:53.134Z,64.77
2019-01-28T13:31:22.476Z,63.30
2019-01-28T13:33:51.796Z,60.33
2019-01-28T13:36:20.955Z,75.07
2019-01-28T13:38:50.390Z,62.00
2019-01-28T13:41:19.722Z,74.30
2019-01-28T13:43:49.070Z,75.53
2019-01-28T13:46:18.488Z,78.20
2019-01-28T13:48:47.817Z,53.57
2019-01-28T13:51:17.292Z,52.20
2019-01-28T13:53:46.633Z,51.47
2019-01-28T13:56:15.968Z,57.13
2019-01-28T13:58:45.299Z,54.30
2019-01-28T14:01:14.633Z,53.83
2019-01-28T14:03:43.975Z,54.60
2019-01-28T14:06:13.305Z,58.93
2019-01-28T14:08:42.240Z,57.30
2019-01-28T14:11:11.400Z,61.97
2019-01-28T14:13:40.772Z,67.17
2019-01-28T14:18:50.856Z,74.63
2019-01-28T14:21:20.251Z,70.77
2019-01-28T14:23:49.554Z,66.80
2019-01-28T14:26:18.887Z,70.63
2019-01-28T14:28:48.213Z,71.60
2019-01-28T14:31:17.576Z,75.77
2019-01-28T14:33:46.912Z,81.17
2019-01-28T14:36:16.247Z,85.33
2019-01-28T14:38:44.912Z,72.47
2019-01-28T14:41:14.039Z,75.57
2019-01-28T14:43:43.367Z,72.43
2019-01-28T14:46:12.720Z,67.67
2019-01-28T14:48:49.038Z,87.83
2019-01-28T14:51:31.405Z,85.30
2019-01-28T14:54:00.540Z,70.07
2019-01-28T14:56:29.995Z,89.47
2019-01-28T14:58:59.327Z,69.83
2019-01-28T15:01:28.661Z,62.47
2019-01-28T15:03:57.988Z,77.43
2019-01-28T15:06:27.349Z,65.83
2019-01-28T15:08:55.978Z,52.80
2019-01-28T15:11:25.515Z,55.73
2019-01-28T15:13:54.551Z,62.20
2019-01-28T15:16:23.900Z,57.17
2019-01-28T15:18:53.236Z,60.60
2019-01-28T15:21:22.572Z,64.33
2019-01-28T15:23:51.921Z,69.40
2019-01-28T15:26:21.029Z,67.83
2019-01-28T15:28:49.802Z,70.97
2019-01-28T15:31:19.248Z,75.57
2019-01-28T15:33:48.570Z,74.83
2019-01-28T15:36:17.401Z,82.43
2019-01-28T15:38:46.743Z,79.43
2019-01-28T15:41:15.375Z,82.70
2019-01-28T15:43:44.812Z,91.13
2019-01-28T15:46:14.251Z,102.20
2019-01-28T15:48:43.612Z,112.70
2019-01-28T15:51:12.925Z,105.53
2019-01-28T15:53:41.575Z,123.67
2019-01-28T15:56:10.897Z,131.43
2019-01-28T15:58:40.275Z,129.10
2019-01-28T16:01:09.613Z,124.43
2019-01-28T16:03:38.967Z,100.60
2019-01-28T16:06:07.808Z,117.40
2019-01-28T16:08:37.302Z,139.83
2019-01-28T16:11:06.620Z,137.10
2019-01-28T16:13:35.951Z,139.07
2019-01-28T16:16:05.388Z,143.23
2019-01-28T16:18:34.975Z,142.00
2019-01-28T16:21:24.089Z,145.13
2019-01-28T16:23:53.457Z,145.30
2019-01-28T16:26:22.783Z,153.50
2019-01-28T16:28:51.347Z,151.10
2019-01-28T16:31:20.330Z,152.77
2019-01-28T16:33:48.851Z,151.27
2019-01-28T16:36:18.178Z,146.23
2019-01-28T16:38:47.497Z,151.57
2019-01-28T16:41:16.859Z,156.13
2019-01-28T16:43:46.181Z,165.33
2019-01-28T16:46:14.714Z,164.87
2019-01-28T16:48:44.041Z,181.40
2019-01-28T16:51:13.395Z,164.93
2019-01-28T16:53:42.015Z,174.43
2019-01-28T16:56:11.341Z,164.80
2019-01-28T16:58:40.772Z,163.43
2019-01-28T17:01:09.412Z,140.30
2019-01-28T17:03:38.746Z,117.90
2019-01-28T17:06:08.176Z,59.53
2019-01-28T17:08:37.501Z,49.57
2019-01-28T17:11:06.837Z,65.77
2019-01-28T17:13:36.167Z,37.73
2019-01-28T17:16:05.009Z,36.50
2019-01-28T17:18:33.461Z,41.20
2019-01-28T17:21:01.904Z,48.37
2019-01-28T17:23:31.348Z,41.63
2019-01-28T17:26:00.681Z,26.27
2019-01-28T17:28:30.015Z,20.27
2019-01-28T17:30:59.348Z,24.73
2019-01-28T17:33:28.669Z,19.57
2019-01-28T17:35:58.014Z,26.27
2019-01-28T17:38:27.344Z,27.80
2019-01-28T17:40:56.702Z,23.77
2019-01-28T17:43:26.046Z,26.77
2019-01-28T17:45:54.779Z,23.10
2019-01-28T17:48:24.102Z,29.63
2019-01-28T17:50:53.540Z,27.17
2019-01-28T17:53:22.861Z,29.93
2019-01-28T17:55:52.211Z,24.97
2019-01-28T17:58:21.544Z,25.37
2019-01-28T18:00:53.642Z,24.73
2019-01-28T18:03:23.071Z,22.10
2019-01-28T18:05:52.403Z,21.40
2019-01-28T18:08:21.582Z,22.07
2019-01-28T18:10:50.317Z,22.90
2019-01-28T18:13:19.662Z,19.43
2019-01-28T18:15:48.516Z,20.43
2019-01-28T18:18:16.954Z,17.23
2019-01-28T18:20:51.648Z,17.53
2019-01-28T18:23:54.721Z,17.27
2019-01-28T18:26:24.056Z,13.87
2019-01-28T18:28:53.397Z,13.83
2019-01-28T18:31:22.851Z,13.83
2019-01-28T18:33:52.180Z,16.13
2019-01-28T18:36:20.622Z,17.30
2019-01-28T18:38:49.979Z,16.07
2019-01-28T18:41:18.490Z,19.67
2019-01-28T18:43:47.828Z,20.70
2019-01-28T18:46:17.151Z,24.13
2019-01-28T18:48:46.671Z,23.77
2019-01-28T18:51:16.146Z,20.83
2019-01-28T18:53:45.430Z,21.87
2019-01-28T18:56:14.775Z,21.00
2019-01-28T18:58:44.115Z,17.40
2019-01-28T19:01:13.435Z,18.67
2019-01-28T19:03:42.787Z,21.13
2019-01-28T19:06:31.580Z,17.93
2019-01-28T19:09:19.671Z,19.20
2019-01-28T19:12:08.918Z,21.63
2019-01-28T19:14:45.166Z,22.07
2019-01-28T19:17:33.948Z,17.30
2019-01-28T19:23:05.242Z,16.73
2019-01-28T19:25:34.586Z,19.80
2019-01-28T19:28:04.123Z,21.03
2019-01-28T19:30:32.765Z,22.30
2019-01-28T19:33:02.205Z,20.40
2019-01-28T19:35:31.583Z,21.33
2019-01-28T19:38:00.907Z,20.97
2019-01-28T19:40:30.255Z,19.60
2019-01-28T19:42:59.577Z,19.13
2019-01-28T19:45:40.248Z,17.00
2019-01-28T19:48:08.870Z,23.43
2019-01-28T19:50:38.300Z,18.27
2019-01-28T19:53:07.628Z,16.73
2019-01-28T19:55:36.962Z,20.10
2019-01-28T19:58:05.433Z,15.70
2019-01-28T20:00:34.773Z,15.33
2019-01-28T20:03:06.607Z,16.30
2019-01-28T20:05:35.351Z,15.27
2019-01-28T20:08:25.160Z,17.77
2019-01-28T20:10:54.572Z,17.80
2019-01-28T20:13:23.958Z,18.73
2019-01-28T20:15:53.333Z,17.27
2019-01-28T20:18:22.402Z,15.37
2019-01-28T20:20:51.944Z,18.43
2019-01-28T20:23:21.297Z,18.37
2019-01-28T20:25:50.456Z,17.93
2019-01-28T20:28:19.833Z,16.97
2019-01-28T20:30:48.386Z,19.37
2019-01-28T20:33:16.936Z,19.53
2019-01-28T20:35:46.280Z,17.03
2019-01-28T20:38:16.104Z,18.57
2019-01-28T20:41:04.835Z,20.23
2019-01-28T20:43:34.179Z,23.13
2019-01-28T20:46:15.068Z,21.93
2019-01-28T20:48:43.719Z,23.90
2019-01-28T20:51:13.126Z,26.60
2019-01-28T20:53:42.447Z,27.23
2019-01-28T20:56:11.797Z,31.90
2019-01-28T20:58:41.139Z,24.57
2019-01-28T21:01:09.773Z,24.87
2019-01-28T21:03:39.107Z,23.47
2019-01-28T21:06:08.636Z,23.37
2019-01-28T21:08:38.089Z,18.10
2019-01-28T21:11:07.555Z,17.30
2019-01-28T21:13:37.020Z,24.60
2019-01-28T21:16:06.433Z,16.43
2019-01-28T21:18:35.801Z,15.73
2019-01-28T21:21:05.228Z,15.03
2019-01-28T21:23:33.863Z,17.13
2019-01-28T21:26:02.300Z,17.13
2019-01-28T21:28:30.832Z,16.30
2019-01-28T21:31:00.217Z,16.77
2019-01-28T21:33:28.755Z,16.27
2019-01-28T21:36:14.942Z,19.00
2019-01-28T21:38:46.552Z,16.40
2019-01-28T21:41:15.874Z,17.27
2019-01-28T21:43:44.707Z,19.03
2019-01-28T21:46:13.533Z,16.93
2019-01-28T21:48:42.874Z,22.67
2019-01-28T21:51:12.308Z,17.73
2019-01-28T21:53:40.849Z,18.37
2019-01-28T21:56:09.279Z,16.07
2019-01-28T21:58:38.599Z,14.83
2019-01-28T22:01:29.099Z,16.40
2019-01-28T22:03:58.436Z,15.83
2019-01-28T22:06:27.762Z,16.43
2019-01-28T22:08:57.113Z,16.77
2019-01-28T22:11:28.090Z,16.67
2019-01-28T22:13:56.881Z,14.17
2019-01-28T22:16:26.229Z,14.53
2019-01-28T22:18:54.765Z,11.13
2019-01-28T22:21:23.214Z,9.87
2019-01-28T22:23:52.538Z,10.30
2019-01-28T22:26:21.867Z,14.50
2019-01-28T22:28:50.395Z,12.20
2019-01-28T22:31:19.869Z,11.13
2019-01-28T22:33:49.204Z,11.87
2019-01-28T22:36:18.546Z,13.10
2019-01-28T22:38:47.855Z,13.30
2019-01-28T22:41:16.716Z,13.07
2019-01-28T22:43:45.361Z,14.03
2019-01-28T22:46:14.002Z,15.37
2019-01-28T22:48:43.297Z,13.20
2019-01-28T22:51:12.627Z,14.37
2019-01-28T22:53:42.052Z,14.73
2019-01-28T22:56:11.388Z,14.23
2019-01-28T22:58:39.913Z,17.57
2019-01-28T23:04:13.039Z,13.27
2019-01-28T23:06:42.375Z,11.53
2019-01-28T23:09:11.726Z,11.93
2019-01-28T23:14:36.248Z,11.13
2019-01-28T23:17:05.594Z,11.57
2019-01-28T23:19:34.915Z,9.33
2019-01-28T23:22:04.459Z,12.13
2019-01-28T23:24:33.776Z,13.07
2019-01-28T23:27:14.846Z,9.27
2019-01-28T23:29:43.390Z,11.47
2019-01-28T23:32:24.292Z,16.67
2019-01-28T23:34:53.036Z,10.90
2019-01-28T23:37:22.388Z,10.57
2019-01-28T23:39:51.720Z,11.43
2019-01-28T23:42:20.158Z,10.50
2019-01-28T23:44:48.687Z,11.50
2019-01-28T23:47:17.246Z,10.60
2019-01-28T23:49:46.606Z,11.33
2019-01-28T23:52:24.507Z,10.33
2019-01-28T23:54:46.465Z,11.53
2019-01-28T23:57:15.807Z,13.40
2019-01-28T23:59:44.345Z,10.70
